createdAt,value
2023-05-16T00:01:30.076Z,100828.94
2023-05-16T00:03:57.411Z,100833.09
2023-05-16T00:06:23.913Z,100832.66
2023-05-16T00:08:50.337Z,100836.66
2023-05-16T00:11:17.707Z,100841.97
2023-05-16T00:13:45.293Z,100837.28
2023-05-16T00:16:14.448Z,100835.63
2023-05-16T00:18:40.972Z,100840.19
2023-05-16T00:21:07.422Z,100842.06
2023-05-16T00:23:34.333Z,100849.75
2023-05-16T00:26:00.746Z,100846.41
2023-05-16T00:28:27.139Z,100850.28
2023-05-16T00:30:53.533Z,100850.16
2023-05-16T00:33:20.155Z,100855.13
2023-05-16T00:35:46.525Z,100855.19
2023-05-16T00:38:12.963Z,100860.47
2023-05-16T00:40:39.417Z,100863.88
2023-05-16T00:43:05.899Z,100861.19
2023-05-16T00:45:32.310Z,100857.66
2023-05-16T00:47:58.828Z,100855.94
2023-05-16T00:50:25.491Z,100867.03
2023-05-16T00:52:52.231Z,100870.09
2023-05-16T00:55:18.739Z,100866.38
2023-05-16T00:57:45.297Z,100863.22
2023-05-16T01:00:12.621Z,100860.94
2023-05-16T01:02:39.289Z,100870.06
2023-05-16T01:05:07.236Z,100865.56
2023-05-16T01:07:34.004Z,100872.03
2023-05-16T01:10:00.699Z,100866.59
2023-05-16T01:12:38.381Z,100871.78
2023-05-16T01:15:08.716Z,100872.66
2023-05-16T01:18:21.210Z,100877.63
2023-05-16T01:20:57.858Z,100873.50
2023-05-16T01:23:34.529Z,100890.00
2023-05-16T01:26:24.959Z,100891.50
2023-05-16T01:28:52.691Z,100896.78
2023-05-16T01:31:20.215Z,100898.31
2023-05-16T01:33:47.279Z,100907.81
2023-05-16T01:36:31.349Z,100896.78
2023-05-16T01:39:26.070Z,100910.03
2023-05-16T01:42:02.940Z,100920.63
2023-05-16T01:44:32.793Z,100923.59
2023-05-16T01:47:02.417Z,100920.78
2023-05-16T01:49:44.089Z,100921.22
2023-05-16T01:52:17.582Z,100924.59
2023-05-16T01:54:45.452Z,100935.38
2023-05-16T01:57:12.895Z,100942.19
2023-05-16T01:59:41.071Z,100947.91
2023-05-16T02:02:07.500Z,100953.50
2023-05-16T02:04:33.988Z,100964.13
2023-05-16T02:07:01.794Z,100957.00
2023-05-16T02:09:28.200Z,100959.91
2023-05-16T02:11:54.692Z,100964.13
2023-05-16T02:14:21.063Z,100966.09
2023-05-16T02:16:48.488Z,100965.47
2023-05-16T02:19:15.014Z,100974.47
2023-05-16T02:21:41.470Z,100981.22
2023-05-16T02:24:07.878Z,100975.09
2023-05-16T02:26:34.283Z,100966.34
2023-05-16T02:29:00.684Z,100964.13
2023-05-16T02:31:32.297Z,100968.00
2023-05-16T02:33:59.884Z,100963.66
2023-05-16T02:36:26.542Z,100978.16
2023-05-16T02:38:53.187Z,100969.78
2023-05-16T02:41:22.225Z,100969.78
2023-05-16T02:43:49.247Z,100971.44
2023-05-16T02:46:27.900Z,100975.38
2023-05-16T02:48:54.693Z,100976.03
2023-05-16T02:51:22.749Z,100980.06
2023-05-16T02:53:49.311Z,100986.16
2023-05-16T02:56:15.718Z,100989.06
2023-05-16T02:58:42.397Z,100990.66
2023-05-16T03:01:09.605Z,100997.38
2023-05-16T03:03:37.354Z,101001.34
2023-05-16T03:06:03.863Z,100998.34
2023-05-16T03:08:30.718Z,100998.41
2023-05-16T03:10:57.121Z,101003.19
2023-05-16T03:13:23.721Z,101003.53
2023-05-16T03:15:50.592Z,101011.59
2023-05-16T03:18:17.004Z,101004.66
2023-05-16T03:20:43.499Z,101009.63
2023-05-16T03:23:09.917Z,101008.03
2023-05-16T03:25:36.914Z,101011.03
2023-05-16T03:28:08.216Z,101012.94
2023-05-16T03:30:34.925Z,101019.41
2023-05-16T03:33:01.437Z,101026.50
2023-05-16T03:35:28.810Z,101021.94
2023-05-16T03:37:55.743Z,101027.06
2023-05-16T03:40:22.153Z,101028.06
2023-05-16T03:42:48.609Z,101036.63
2023-05-16T03:45:15.669Z,101034.97
2023-05-16T03:47:42.733Z,101037.44
2023-05-16T03:50:09.879Z,101032.38
2023-05-16T03:52:36.490Z,101042.44
2023-05-16T03:55:03.837Z,101048.53
2023-05-16T03:57:31.891Z,101054.34
2023-05-16T03:59:58.318Z,101055.66
2023-05-16T04:02:24.884Z,101060.59
2023-05-16T04:04:51.398Z,101062.63
2023-05-16T04:07:17.782Z,101064.84
2023-05-16T04:09:44.199Z,101064.84
2023-05-16T04:12:10.654Z,101073.22
2023-05-16T04:14:37.281Z,101074.78
2023-05-16T04:17:03.812Z,101076.44
2023-05-16T04:19:30.210Z,101085.00
2023-05-16T04:21:57.043Z,101082.53
2023-05-16T04:24:26.476Z,101084.97
2023-05-16T04:26:52.939Z,101097.66
2023-05-16T04:29:19.564Z,101091.31
2023-05-16T04:31:46.031Z,101102.16
2023-05-16T04:34:13.055Z,101102.44
2023-05-16T04:36:40.241Z,101116.00
2023-05-16T04:39:08.062Z,101116.38
2023-05-16T04:41:36.132Z,101113.03
2023-05-16T04:44:06.339Z,101113.66
2023-05-16T04:46:32.752Z,101115.88
2023-05-16T04:48:59.209Z,101116.91
2023-05-16T04:51:25.767Z,101126.72
2023-05-16T04:53:52.159Z,101131.59
2023-05-16T04:56:18.880Z,101129.53
2023-05-16T04:58:45.286Z,101129.31
2023-05-16T05:01:11.702Z,101135.75
2023-05-16T05:03:38.128Z,101140.41
2023-05-16T05:06:04.719Z,101143.25
2023-05-16T05:08:31.128Z,101144.28
2023-05-16T05:10:57.732Z,101147.78
2023-05-16T05:13:24.152Z,101148.66
2023-05-16T05:15:52.225Z,101150.50
2023-05-16T05:18:18.896Z,101152.28
2023-05-16T05:20:45.312Z,101160.72
2023-05-16T05:23:11.794Z,101160.44
2023-05-16T05:25:38.825Z,101172.94
2023-05-16T05:28:05.911Z,101161.75
2023-05-16T05:30:32.344Z,101164.66
2023-05-16T05:32:58.808Z,101177.03
2023-05-16T05:35:25.474Z,101177.88
2023-05-16T05:37:52.304Z,101179.94
2023-05-16T05:40:18.699Z,101182.25
2023-05-16T05:42:47.032Z,101184.81
2023-05-16T05:45:14.656Z,101187.97
2023-05-16T05:47:41.278Z,101189.34
2023-05-16T05:50:09.003Z,101188.63
2023-05-16T05:52:35.400Z,101195.19
2023-05-16T05:55:01.949Z,101190.19
2023-05-16T05:57:28.334Z,101201.16
2023-05-16T05:59:54.714Z,101193.38
2023-05-16T06:02:21.296Z,101197.31
2023-05-16T06:04:47.756Z,101207.25
2023-05-16T06:07:15.935Z,101208.41
2023-05-16T06:09:43.491Z,101210.47
2023-05-16T06:12:09.941Z,101207.00
2023-05-16T06:14:36.344Z,101208.00
2023-05-16T06:17:02.794Z,101208.91
2023-05-16T06:19:29.310Z,101212.16
2023-05-16T06:21:56.244Z,101213.19
2023-05-16T06:24:22.772Z,101214.25
2023-05-16T06:26:50.202Z,101214.09
2023-05-16T06:29:17.340Z,101211.50
2023-05-16T06:31:44.625Z,101215.63
2023-05-16T06:34:11.213Z,101213.41
2023-05-16T06:36:37.665Z,101218.16
2023-05-16T06:39:04.863Z,101227.00
2023-05-16T06:41:31.325Z,101227.28
2023-05-16T06:43:57.801Z,101217.88
2023-05-16T06:46:24.363Z,101230.97
2023-05-16T06:48:50.882Z,101227.28
2023-05-16T06:51:17.318Z,101233.75
2023-05-16T06:53:43.757Z,101224.28
2023-05-16T06:56:10.183Z,101221.31
2023-05-16T06:58:36.875Z,101226.88
2023-05-16T07:01:03.414Z,101228.06
2023-05-16T07:03:31.890Z,101223.63
2023-05-16T07:05:58.524Z,101228.72
2023-05-16T07:08:25.925Z,101221.28
2023-05-16T07:10:52.350Z,101234.22
2023-05-16T07:13:18.776Z,101226.22
2023-05-16T07:15:45.222Z,101234.44
2023-05-16T07:18:11.831Z,101228.53
2023-05-16T07:20:38.320Z,101230.53
2023-05-16T07:23:04.744Z,101237.72
2023-05-16T07:25:31.601Z,101234.59
2023-05-16T07:27:58.037Z,101224.31
2023-05-16T07:30:24.663Z,101229.94
2023-05-16T07:32:51.316Z,101230.34
2023-05-16T07:35:18.293Z,101227.88
2023-05-16T07:37:44.707Z,101222.19
2023-05-16T07:40:11.681Z,101226.22
2023-05-16T07:42:38.147Z,101225.34
2023-05-16T07:45:06.911Z,101227.72
2023-05-16T07:47:33.404Z,101229.28
2023-05-16T07:49:59.890Z,101234.94
2023-05-16T07:52:26.336Z,101238.84
2023-05-16T07:54:52.834Z,101242.97
2023-05-16T07:57:19.485Z,101237.13
2023-05-16T07:59:46.752Z,101236.53
2023-05-16T08:02:13.245Z,101232.38
2023-05-16T08:04:39.709Z,101244.03
2023-05-16T08:07:06.198Z,101235.22
2023-05-16T08:09:32.667Z,101235.78
2023-05-16T08:12:03.346Z,101233.63
2023-05-16T08:14:31.715Z,101242.44
2023-05-16T08:17:01.329Z,101240.25
2023-05-16T08:19:27.899Z,101229.47
2023-05-16T08:21:54.854Z,101235.22
2023-05-16T08:24:21.361Z,101238.63
2023-05-16T08:26:47.791Z,101236.69
2023-05-16T08:29:14.583Z,101246.56
2023-05-16T08:31:41.076Z,101250.09
2023-05-16T08:34:09.275Z,101251.13
2023-05-16T08:36:36.949Z,101244.72
2023-05-16T08:39:03.744Z,101244.72
2023-05-16T08:41:30.877Z,101246.53
2023-05-16T08:43:57.604Z,101233.28
2023-05-16T08:46:24.351Z,101232.38
2023-05-16T08:48:53.235Z,101237.00
2023-05-16T08:51:20.795Z,101246.38
2023-05-16T08:54:11.772Z,101244.03
2023-05-16T08:56:38.608Z,101244.03
2023-05-16T08:59:05.263Z,101242.19
2023-05-16T09:01:32.425Z,101235.25
2023-05-16T09:04:00.166Z,101230.50
2023-05-16T09:06:27.648Z,101233.78
2023-05-16T09:08:54.920Z,101248.16
2023-05-16T09:11:21.730Z,101240.31
2023-05-16T09:13:49.071Z,101232.75
2023-05-16T09:16:19.838Z,101235.03
2023-05-16T09:18:57.643Z,101224.94
2023-05-16T09:21:28.094Z,101224.78
2023-05-16T09:23:54.945Z,101237.47
2023-05-16T09:26:22.621Z,101229.69
2023-05-16T09:28:49.175Z,101234.13
2023-05-16T09:31:24.888Z,101248.22
2023-05-16T09:33:51.347Z,101240.63
2023-05-16T09:36:17.854Z,101250.91
2023-05-16T09:38:45.314Z,101241.09
2023-05-16T09:41:11.796Z,101230.34
2023-05-16T09:43:41.125Z,101231.72
2023-05-16T09:46:08.488Z,101214.38
2023-05-16T09:48:34.985Z,101225.72
2023-05-16T09:51:05.662Z,101221.34
2023-05-16T09:53:33.204Z,101212.06
2023-05-16T09:56:01.296Z,101220.44
2023-05-16T09:58:32.933Z,101225.06
2023-05-16T10:00:59.639Z,101214.09
2023-05-16T10:03:27.059Z,101205.00
2023-05-16T10:05:54.595Z,101194.66
2023-05-16T10:08:22.548Z,101207.00
2023-05-16T10:10:54.934Z,101205.81
2023-05-16T10:13:22.833Z,101211.47
2023-05-16T10:15:50.143Z,101214.66
2023-05-16T10:18:20.832Z,101219.00
2023-05-16T10:20:49.706Z,101228.13
2023-05-16T10:23:20.226Z,101230.66
2023-05-16T10:25:49.826Z,101221.22
2023-05-16T10:28:16.675Z,101223.81
2023-05-16T10:30:45.452Z,101222.63
2023-05-16T10:33:16.627Z,101219.09
2023-05-16T10:35:44.290Z,101217.31
2023-05-16T10:38:12.394Z,101198.88
2023-05-16T10:40:39.691Z,101206.44
2023-05-16T10:43:08.365Z,101208.72
2023-05-16T10:45:39.828Z,101207.78
2023-05-16T10:48:08.818Z,101197.03
2023-05-16T10:50:44.928Z,101201.88
2023-05-16T10:53:13.502Z,101207.16
2023-05-16T10:55:40.753Z,101207.50
2023-05-16T10:58:07.980Z,101214.88
2023-05-16T11:00:34.424Z,101218.13
2023-05-16T11:03:25.166Z,101207.72
2023-05-16T11:05:54.038Z,101196.97
2023-05-16T11:08:20.697Z,101188.44
2023-05-16T11:10:47.449Z,101184.28
2023-05-16T11:13:19.475Z,101180.91
2023-05-16T11:15:46.333Z,101196.84
2023-05-16T11:18:17.011Z,101192.41
2023-05-16T11:20:43.605Z,101197.19
2023-05-16T11:23:19.712Z,101193.63
2023-05-16T11:25:48.143Z,101189.16
2023-05-16T11:28:15.150Z,101187.41
2023-05-16T11:30:46.675Z,101187.16
2023-05-16T11:33:13.473Z,101189.72
2023-05-16T11:35:40.017Z,101190.63
2023-05-16T11:38:06.467Z,101185.22
2023-05-16T11:40:32.910Z,101200.50
2023-05-16T11:43:00.766Z,101209.28
2023-05-16T11:45:27.451Z,101222.66
2023-05-16T11:47:54.049Z,101232.75
2023-05-16T11:50:22.106Z,101231.16
2023-05-16T11:52:53.423Z,101233.44
2023-05-16T11:55:40.371Z,101232.66
2023-05-16T11:58:08.805Z,101236.91
2023-05-16T12:00:35.279Z,101225.00
2023-05-16T12:03:05.554Z,101214.16
2023-05-16T12:05:33.645Z,101193.00
2023-05-16T12:08:00.948Z,101192.00
2023-05-16T12:10:27.787Z,101196.66
2023-05-16T12:12:54.865Z,101195.13
2023-05-16T12:15:21.620Z,101189.09
2023-05-16T12:17:48.601Z,101189.94
2023-05-16T12:20:16.328Z,101182.13
2023-05-16T12:22:46.459Z,101184.44
2023-05-16T12:25:26.157Z,101178.47
2023-05-16T12:27:54.398Z,101172.06
2023-05-16T12:30:22.943Z,101178.22
2023-05-16T12:33:00.874Z,101178.91
2023-05-16T12:35:33.194Z,101197.47
2023-05-16T12:38:01.059Z,101175.44
2023-05-16T12:40:30.807Z,101204.19
2023-05-16T12:42:57.805Z,101198.81
2023-05-16T12:45:27.270Z,101205.03
2023-05-16T12:47:54.007Z,101203.22
2023-05-16T12:50:20.664Z,101193.28
2023-05-16T12:52:51.489Z,101192.47
2023-05-16T12:55:18.848Z,101185.03
2023-05-16T12:57:47.569Z,101177.63
2023-05-16T13:00:15.690Z,101181.50
2023-05-16T13:02:42.339Z,101189.66
2023-05-16T13:05:10.151Z,101172.50
2023-05-16T13:07:37.370Z,101179.38
2023-05-16T13:10:04.337Z,101177.09
2023-05-16T13:12:31.064Z,101157.13
2023-05-16T13:14:57.517Z,101170.31
2023-05-16T13:17:23.952Z,101160.59
2023-05-16T13:19:50.484Z,101150.59
2023-05-16T13:22:16.932Z,101136.91
2023-05-16T13:24:43.360Z,101163.31
2023-05-16T13:27:09.866Z,101166.22
2023-05-16T13:29:36.315Z,101171.47
2023-05-16T13:32:02.885Z,101174.84
2023-05-16T13:34:29.521Z,101181.00
2023-05-16T13:36:55.968Z,101181.72
2023-05-16T13:39:22.581Z,101195.69
2023-05-16T13:41:49.439Z,101205.59
2023-05-16T13:44:16.528Z,101223.53
2023-05-16T13:46:43.198Z,101206.25
2023-05-16T13:49:09.776Z,101207.88
2023-05-16T13:51:36.350Z,101219.22
2023-05-16T13:54:02.806Z,101210.53
2023-05-16T13:56:29.243Z,101214.00
2023-05-16T13:59:02.533Z,101218.03
2023-05-16T14:01:32.583Z,101220.66
2023-05-16T14:03:59.103Z,101217.88
2023-05-16T14:06:25.702Z,101224.50
2023-05-16T14:08:52.123Z,101224.66
2023-05-16T14:11:19.831Z,101223.00
2023-05-16T14:13:46.572Z,101233.22
2023-05-16T14:16:13.036Z,101225.16
2023-05-16T14:18:39.590Z,101215.06
2023-05-16T14:21:06.081Z,101218.34
2023-05-16T14:23:32.514Z,101212.28
2023-05-16T14:25:59.153Z,101219.22
2023-05-16T14:28:25.559Z,101217.25
2023-05-16T14:30:52.187Z,101219.41
2023-05-16T14:33:19.739Z,101222.81
2023-05-16T14:35:46.321Z,101226.75
2023-05-16T14:38:12.832Z,101223.88
2023-05-16T14:40:39.261Z,101230.03
2023-05-16T14:43:05.778Z,101221.69
2023-05-16T14:45:32.253Z,101235.06
2023-05-16T14:47:58.755Z,101238.16
2023-05-16T14:50:25.602Z,101241.72
2023-05-16T14:52:53.004Z,101242.97
2023-05-16T14:55:20.790Z,101243.34
2023-05-16T14:57:50.444Z,101241.38
2023-05-16T15:00:23.181Z,101243.38
2023-05-16T15:02:49.647Z,101247.59
2023-05-16T15:05:16.328Z,101257.59
2023-05-16T15:07:43.884Z,101250.81
2023-05-16T15:10:11.089Z,101251.25
2023-05-16T15:12:40.817Z,101246.03
2023-05-16T15:15:11.928Z,101249.28
2023-05-16T15:17:41.809Z,101271.81
2023-05-16T15:20:10.279Z,101263.78
2023-05-16T15:22:37.141Z,101264.91
2023-05-16T15:25:05.704Z,101266.59
2023-05-16T15:27:32.366Z,101262.22
2023-05-16T15:29:59.342Z,101262.38
2023-05-16T15:32:26.038Z,101274.13
2023-05-16T15:34:52.585Z,101265.31
2023-05-16T15:37:19.370Z,101258.09
2023-05-16T15:39:45.821Z,101254.44
2023-05-16T15:42:12.289Z,101269.31
2023-05-16T15:44:39.451Z,101270.94
2023-05-16T15:47:06.322Z,101274.75
2023-05-16T15:49:32.816Z,101275.56
2023-05-16T15:51:59.323Z,101288.44
2023-05-16T15:54:25.896Z,101291.50
2023-05-16T15:56:52.313Z,101304.34
2023-05-16T15:59:18.836Z,101290.88
2023-05-16T16:01:45.377Z,101285.00
2023-05-16T16:04:11.800Z,101298.16
2023-05-16T16:06:38.321Z,101295.31
2023-05-16T16:09:04.821Z,101298.41
2023-05-16T16:11:31.363Z,101300.69
2023-05-16T16:13:57.831Z,101306.34
2023-05-16T16:16:24.315Z,101306.16
2023-05-16T16:18:50.984Z,101301.22
2023-05-16T16:21:17.736Z,101299.91
2023-05-16T16:23:44.204Z,101298.63
2023-05-16T16:26:10.630Z,101301.13
2023-05-16T16:28:37.107Z,101304.19
2023-05-16T16:31:03.995Z,101306.84
2023-05-16T16:33:31.055Z,101311.97
2023-05-16T16:35:57.511Z,101314.69
2023-05-16T16:38:23.947Z,101316.44
2023-05-16T16:40:50.472Z,101312.03
2023-05-16T16:43:17.281Z,101315.66
2023-05-16T16:45:43.742Z,101319.94
2023-05-16T16:48:10.778Z,101319.06
2023-05-16T16:50:37.438Z,101320.78
2023-05-16T16:53:04.462Z,101330.03
2023-05-16T16:55:31.197Z,101323.56
2023-05-16T16:57:57.719Z,101335.38
2023-05-16T17:00:24.466Z,101346.03
2023-05-16T17:02:51.162Z,101348.56
2023-05-16T17:05:17.804Z,101348.84
2023-05-16T17:07:44.338Z,101355.41
2023-05-16T17:10:10.946Z,101359.47
2023-05-16T17:12:44.387Z,101369.09
2023-05-16T17:15:11.794Z,101359.03
2023-05-16T17:17:38.503Z,101363.69
2023-05-16T17:20:07.225Z,101364.84
2023-05-16T17:22:33.807Z,101363.88
2023-05-16T17:25:00.242Z,101370.44
2023-05-16T17:27:26.676Z,101368.50
2023-05-16T17:29:53.144Z,101365.59
2023-05-16T17:32:21.338Z,101367.72
2023-05-16T17:34:48.174Z,101371.88
2023-05-16T17:37:14.680Z,101371.66
2023-05-16T17:39:41.134Z,101378.44
2023-05-16T17:42:09.074Z,101380.28
2023-05-16T17:44:36.432Z,101382.31
2023-05-16T17:47:02.913Z,101388.47
2023-05-16T17:49:29.605Z,101386.50
2023-05-16T17:51:59.029Z,101384.69
2023-05-16T17:54:27.156Z,101382.97
2023-05-16T17:56:53.657Z,101392.69
2023-05-16T17:59:20.159Z,101391.13
2023-05-16T18:01:47.319Z,101395.13
2023-05-16T18:04:14.324Z,101385.25
2023-05-16T18:06:41.128Z,101391.81
2023-05-16T18:09:09.893Z,101396.34
2023-05-16T18:11:37.970Z,101394.66
2023-05-16T18:14:04.677Z,101399.38
2023-05-16T18:16:31.248Z,101402.53
2023-05-16T18:18:58.122Z,101408.53
2023-05-16T18:21:24.858Z,101410.78
2023-05-16T18:23:51.679Z,101415.06
2023-05-16T18:26:19.260Z,101414.63
2023-05-16T18:28:46.164Z,101414.94
2023-05-16T18:31:12.655Z,101416.59
2023-05-16T18:33:39.158Z,101417.81
2023-05-16T18:36:05.825Z,101415.44
2023-05-16T18:38:33.606Z,101419.38
2023-05-16T18:41:00.452Z,101414.44
2023-05-16T18:43:26.971Z,101417.69
2023-05-16T18:45:53.450Z,101423.56
2023-05-16T18:48:19.984Z,101424.44
2023-05-16T18:50:46.689Z,101419.50
2023-05-16T18:53:13.175Z,101421.94
2023-05-16T18:55:39.755Z,101421.50
2023-05-16T18:58:06.904Z,101438.03
2023-05-16T19:00:34.238Z,101434.88
2023-05-16T19:03:01.149Z,101434.22
2023-05-16T19:05:28.037Z,101431.13
2023-05-16T19:07:54.756Z,101431.09
2023-05-16T19:10:21.463Z,101440.69
2023-05-16T19:12:49.035Z,101433.41
2023-05-16T19:15:15.546Z,101443.84
2023-05-16T19:17:42.104Z,101440.03
2023-05-16T19:20:09.942Z,101450.81
2023-05-16T19:22:36.756Z,101454.22
2023-05-16T19:25:03.825Z,101464.47
2023-05-16T19:27:30.738Z,101455.16
2023-05-16T19:29:57.128Z,101463.28
2023-05-16T19:32:23.866Z,101463.84
2023-05-16T19:34:50.376Z,101458.31
2023-05-16T19:37:16.844Z,101457.50
2023-05-16T19:39:43.261Z,101460.63
2023-05-16T19:42:09.689Z,101456.81
2023-05-16T19:44:36.085Z,101460.47
2023-05-16T19:47:02.690Z,101469.22
2023-05-16T19:49:31.607Z,101469.66
2023-05-16T19:51:58.104Z,101465.00
2023-05-16T19:54:24.621Z,101461.09
2023-05-16T19:56:51.060Z,101470.97
2023-05-16T19:59:17.593Z,101464.69
2023-05-16T20:01:44.222Z,101471.31
2023-05-16T20:04:11.587Z,101469.53
2023-05-16T20:06:38.197Z,101475.66
2023-05-16T20:09:05.963Z,101475.41
2023-05-16T20:11:32.612Z,101472.41
2023-05-16T20:14:00.124Z,101474.94
2023-05-16T20:16:27.245Z,101478.50
2023-05-16T20:18:53.887Z,101480.75
2023-05-16T20:21:20.433Z,101478.16
2023-05-16T20:23:46.949Z,101480.06
2023-05-16T20:26:14.854Z,101475.81
2023-05-16T20:28:41.813Z,101483.03
2023-05-16T20:31:08.354Z,101488.16
2023-05-16T20:33:34.849Z,101490.75
2023-05-16T20:36:01.327Z,101486.44
2023-05-16T20:38:27.793Z,101498.50
2023-05-16T20:40:54.203Z,101498.47
2023-05-16T20:43:20.700Z,101491.88
2023-05-16T20:45:47.142Z,101499.53
2023-05-16T20:48:14.032Z,101496.59
2023-05-16T20:50:40.644Z,101506.72
2023-05-16T20:53:07.166Z,101495.38
2023-05-16T20:55:33.618Z,101501.16
2023-05-16T20:58:00.743Z,101496.44
2023-05-16T21:00:27.199Z,101500.31
2023-05-16T21:02:53.705Z,101495.31
2023-05-16T21:05:25.454Z,101492.22
2023-05-16T21:07:52.658Z,101496.88
2023-05-16T21:10:19.145Z,101498.94
2023-05-16T21:12:45.696Z,101503.19
2023-05-16T21:15:12.324Z,101505.03
2023-05-16T21:17:40.740Z,101503.44
2023-05-16T21:20:08.155Z,101506.53
2023-05-16T21:22:34.633Z,101503.94
2023-05-16T21:25:01.164Z,101508.34
2023-05-16T21:27:27.623Z,101512.56
2023-05-16T21:29:54.060Z,101509.72
2023-05-16T21:32:20.489Z,101502.66
2023-05-16T21:34:46.921Z,101505.91
2023-05-16T21:37:13.465Z,101502.50
2023-05-16T21:39:39.895Z,101507.19
2023-05-16T21:42:06.568Z,101507.72
2023-05-16T21:44:33.009Z,101515.06
2023-05-16T21:46:59.428Z,101518.94
2023-05-16T21:49:25.882Z,101513.28
2023-05-16T21:51:52.351Z,101520.38
2023-05-16T21:54:18.860Z,101524.94
2023-05-16T21:56:45.583Z,101522.47
2023-05-16T21:59:13.744Z,101525.47
2023-05-16T22:01:40.223Z,101525.72
2023-05-16T22:04:06.794Z,101520.56
2023-05-16T22:06:33.359Z,101528.75
2023-05-16T22:09:04.331Z,101514.25
2023-05-16T22:11:30.950Z,101519.44
2023-05-16T22:13:57.443Z,101517.38
2023-05-16T22:16:23.946Z,101521.72
2023-05-16T22:18:50.480Z,101518.25
2023-05-16T22:21:17.203Z,101524.22
2023-05-16T22:23:43.661Z,101526.69
2023-05-16T22:26:10.262Z,101536.09
2023-05-16T22:28:36.742Z,101530.66
2023-05-16T22:31:03.150Z,101531.72
2023-05-16T22:33:29.668Z,101534.25
2023-05-16T22:35:56.189Z,101542.97
2023-05-16T22:38:22.670Z,101530.56
2023-05-16T22:40:49.125Z,101531.97
2023-05-16T22:43:15.721Z,101534.94
2023-05-16T22:45:42.122Z,101540.25
2023-05-16T22:48:08.696Z,101544.56
2023-05-16T22:50:35.199Z,101543.94
2023-05-16T22:53:01.618Z,101548.09
2023-05-16T22:55:28.282Z,101544.09
2023-05-16T22:57:57.051Z,101552.66
2023-05-16T23:00:23.570Z,101549.97
2023-05-16T23:02:50.148Z,101551.41
2023-05-16T23:05:16.858Z,101554.50
2023-05-16T23:07:43.306Z,101553.88
2023-05-16T23:10:09.840Z,101561.25
2023-05-16T23:12:36.279Z,101550.28
2023-05-16T23:15:03.215Z,101555.63
2023-05-16T23:17:29.746Z,101564.00
2023-05-16T23:19:56.332Z,101561.47
2023-05-16T23:22:22.862Z,101562.13
2023-05-16T23:24:49.294Z,101560.13
2023-05-16T23:27:15.747Z,101560.28
2023-05-16T23:29:42.402Z,101559.75
2023-05-16T23:32:08.850Z,101558.16
2023-05-16T23:34:35.368Z,101572.38
2023-05-16T23:37:01.799Z,101562.03
2023-05-16T23:39:28.278Z,101565.41
2023-05-16T23:41:54.873Z,101571.25
2023-05-16T23:44:21.313Z,101565.94
2023-05-16T23:46:47.761Z,101568.91
2023-05-16T23:49:14.189Z,101569.03
2023-05-16T23:51:56.224Z,101567.28
2023-05-16T23:54:23.646Z,101569.59
2023-05-16T23:56:50.129Z,101565.91
2023-05-16T23:59:16.618Z,101572.97
